Aérodrome :
LOGIN :

S'inscrire | Disclaimer

   EN    FR    IT 

 










Légende :    VFR   VFR Marginal   IFR   IFR Intensif   IFR Très Intensif
Visi : 
Plafond : 
>= 8 km
>= 3000ft
5 à 8 km
1000 à 3000 ft
1500m à 5 km
500 à 1000 ft
800 à 1500m
200 à 500 ft
< 800m
< 200 ft
Symboles :   Orages  Brouillard  Fortes neiges  Fortes précipitations  Vent > 20 kt
SIGMETs :   Divers  Orages  Givrage  Turbulence  Onde Orograph.  Cendres Volcan.






- Altitude de l'aérodrome : 909 ft
- Code IATA : KSF


EDVK - Kassel Calden

DERNIER METAR :
  • 301950Z 14006KT CAVOK 25/16 Q1009

METARs EXPIRÉS :
  • 301920Z 12007KT CAVOK 26/16 Q1009
  • 301850Z 11005KT CAVOK 26/16 Q1009
  • 301820Z 10007KT CAVOK 28/16 Q1009
  • 301750Z 08008KT CAVOK 28/16 Q1009
  • 301720Z 07008KT 030V100 CAVOK 29/16 Q1009

TAF TAF EDVK
Valide du 30 à 18h jusqu'au 01 à 03h UTC


301700Z 3018/0103 07007KT 9999 FEW045
BECMG 3018/3021 28007KT
PROB40
TEMPO 3019/0103 28015G30KT 4000 TSRA BKN010 BKN030CB



MET'MAP, la Météo Aéronautique d'un coup d'oeil ! - Copyright ORBIFLY Décembre 2007 - Disclaimer

ORBIFLY MET'MAP TEAM :

Programmation & Développement : Alexandra Zaïnal
Sur une idée originale de : Baudouin d'Aumeries
Soutien technique & logistique : Manuel Goepfert
Assistance : Marc-Olivier Méhu




SOURCES & CREDITS :

   NOAA